Flight Track Log - Related Links

Times and Time Zones

All times are in EDT time to prevent confusion due to time zone crossing. See the N491N flight status page for this flight to view local times or setup timezone preferences in your user account.

Time Position Orientation Groundspeed Altitude Reporting Facility
EDT Latitude Longitude Course Direction KTS MPH feet Rate Location/Type
Tue 09:30:45 PM 43.1625 -85.9831 95° East 268 308 8,800  Level Chicago Center
Tue 09:31:47 PM 43.1542 -85.8650 95° East 307 353 10,600 1,645 Climbing Chicago Center
Tue 09:32:49 PM 43.1431 -85.7317 96° East 346 398 12,200 1,500 Climbing Chicago Center
Tue 09:33:51 PM 43.1322 -85.5939 96° East 360 414 13,700 1,452 Climbing Chicago Center
Tue 09:34:53 PM 43.1206 -85.4550 97° East 367 422 15,200 1,597 Climbing Chicago Center
Tue 09:35:00 PM 43.0953 -85.3668 94° East  Level FlightAware
Tue 09:35:55 PM 43.1069 -85.2858 96° East 372 428 17,000  Level Chicago Center
Tue 09:36:56 PM 43.0950 -85.1444 97° East 374 430 18,300 1,415 Climbing Chicago Center
Tue 09:37:58 PM 43.0825 -85.0014 97° East 378 435 19,900 1,500 Climbing Chicago Center
Tue 09:39:00 PM 43.0700 -84.8583 97° East 379 436 21,400 1,452 Climbing Chicago Center
Tue 09:40:02 PM 43.0581 -84.7139 96° East 383 441 22,900 1,452 Climbing Chicago Center
Tue 09:41:04 PM 43.0444 -84.5694 97° East 385 443 24,400 1,597 Climbing Chicago Center
Tue 09:42:06 PM 43.0478 -84.3950 88° East 383 441 26,200 1,597 Climbing Chicago Center
Tue 09:43:08 PM 43.0561 -84.2486 85° East 387 445 27,700 1,355 Climbing Chicago Center
Tue 09:44:10 PM 43.0658 -84.0986 85° East 395 455 29,000 1,200 Climbing Chicago Center
Tue 09:45:23 PM 43.0728 -83.9142 87° East 404 465 30,400 1,218 Climbing Cleveland Center
Tue 09:46:23 PM 43.0836 -83.7500 85° East 416 479 31,700 1,250 Climbing Cleveland Center
Tue 09:47:23 PM 43.0922 -83.5856 86° East 423 487 32,900 1,250 Climbing Cleveland Center
Tue 09:48:23 PM 43.1006 -83.4208 86° East 428 493 34,200 1,300 Climbing Cleveland Center
Tue 09:49:23 PM 43.1086 -83.2564 86° East 428 493 35,500 1,250 Climbing Cleveland Center
Tue 09:50:23 PM 43.1164 -83.0917 86° East 428 493 36,700 1,200 Climbing Cleveland Center
Tue 09:51:23 PM 43.1264 -82.9214 85° East 438 504 37,900 1,100 Climbing Cleveland Center
Tue 09:52:23 PM 43.1167 -82.7167 94° East 450 518 38,900 550 Climbing Toronto Center
Tue 09:53:23 PM 43.1333 -82.5500 82° East 460 529 39,000 50 Climbing Toronto Center
Tue 09:54:23 PM 43.1333 -82.3667 90° East 470 541 39,000  Level Toronto Center
Tue 09:55:23 PM 43.1500 -82.2000 82° East 470 541 39,000  Level Toronto Center
Tue 09:56:23 PM 43.1500 -82.0167 90° East 470 541 39,000  Level Toronto Center
Tue 09:57:23 PM 43.1667 -81.8333 83° East 470 541 39,000  Level Toronto Center
Tue 09:58:23 PM 43.1667 -81.6500 90° East 470 541 39,000  Level Toronto Center
Tue 09:59:23 PM 43.1667 -81.4667 90° East 480 552 39,000  Level Toronto Center
Tue 10:00:23 PM 43.1833 -81.2833 83° East 480 552 39,000  Level Toronto Center
Tue 10:01:23 PM 43.1833 -81.1167 90° East 470 541 39,000  Level Toronto Center
Tue 10:02:23 PM 43.1833 -80.9167 90° East 480 552 39,000  Level Toronto Center
Tue 10:03:23 PM 43.2000 -80.7500 82° East 470 541 39,000  Level Toronto Center
Tue 10:04:23 PM 43.2000 -80.5500 90° East 480 552 39,000  Level Toronto Center
Tue 10:05:23 PM 43.2167 -80.3833 82° East 480 552 39,000  Level Toronto Center
Tue 10:06:23 PM 43.2167 -80.2000 90° East 480 552 39,000 -300 Level Toronto Center
Tue 10:07:23 PM 43.2167 -80.0167 90° East 480 552 38,400 -1,050 Descending Toronto Center
Tue 10:08:23 PM 43.2167 -79.8333 90° East 480 552 36,900 -1,450 Descending Toronto Center
Tue 10:09:23 PM 43.2167 -79.6333 90° East 490 564 35,500 -1,000 Descending Toronto Center
Tue 10:10:23 PM 43.2333 -79.4667 82° East 480 552 34,900 -1,050 Descending Toronto Center
Tue 10:11:23 PM 43.2333 -79.2833 90° East 480 552 33,400 -1,550 Descending Toronto Center
Tue 10:12:23 PM 43.2333 -79.1000 90° East 460 529 31,800 -1,200 Descending Toronto Center
Tue 10:13:23 PM 43.2333 -78.9500 90° East 450 518 31,000 -400 Descending Toronto Center
Tue 10:14:23 PM 43.2333 -78.7667 90° East 450 518 31,000 -250 Level Toronto Center
Tue 10:15:23 PM 43.2500 -78.5833 83° East 460 529 30,500 -900 Descending Toronto Center
Tue 10:16:23 PM 43.2333 -78.4000 97° East 460 529 29,200 -1,100 Descending Toronto Center
Tue 10:17:23 PM 43.2333 -78.2333 90° East 460 529 28,300 -1,200 Descending Toronto Center
Tue 10:18:23 PM 43.2333 -78.0500 90° East 470 541 26,800 -1,500 Descending Toronto Center
Tue 10:19:23 PM 43.2333 -77.8667 90° East 470 541 25,300 -1,450 Descending Toronto Center
Tue 10:20:23 PM 43.2500 -77.7167 81° East 460 529 23,900 -1,500 Descending Toronto Center
Tue 10:21:23 PM 43.2500 -77.5333 90° East 450 518 22,300 -1,500 Descending Toronto Center
Tue 10:22:23 PM 43.2333 -77.3667 98° East 440 506 20,900 -1,450 Descending Toronto Center
Tue 10:23:23 PM 43.2333 -77.2000 90° East 430 495 19,400 -1,500 Descending Toronto Center
Tue 10:24:23 PM 43.2333 -77.0500 90° East 420 483 17,900 -1,200 Descending Toronto Center
Tue 10:25:23 PM 43.2500 -76.8833 82° East 410 472 17,000 -1,350 Descending Toronto Center
Tue 10:26:23 PM 43.2500 -76.7500 90° East 400 460 15,200 -1,650 Descending Toronto Center
Tue 10:27:23 PM 43.2333 -76.6167 100° East 370 426 13,700 -1,600 Descending Toronto Center
Tue 10:28:23 PM 43.2333 -76.4667 90° East 350 403 12,000 -1,500 Descending Toronto Center
Tue 10:29:23 PM 43.2333 -76.3333 90° East 340 391 10,700 -1,000 Descending Toronto Center
Tue 10:30:23 PM 43.2333 -76.2167 90° East 330 380 10,000 -514 Descending Toronto Center
Tue 10:31:43 PM 43.2461 -76.1033 81° East 322 371 9,500 -900 Descending Boston Center
Tue 10:32:43 PM 43.2456 -75.9919 90° East 306 352 7,900 -1,815 Descending Boston Center
Tue 10:33:42 PM 43.2406 -75.8833 94° East 258 297 5,900 -1,500 Descending Boston Center
Tue 10:34:43 PM 43.2414 -75.7864 89° East 246 283 4,900 -983 Descending Boston Center
Tue 10:35:38 PM 43.2375 -75.7036 94° East 233 268 4,000 -950 Descending Boston Center
Tue 10:36:43 PM 43.2336 -75.6178 94° East 236 272 3,000 -793 Descending Boston Center
Tue 10:37:39 PM 43.2253 -75.5406 98° East 212 244 2,400 -513 Descending Boston Center
Tue 10:38:40 PM 43.2147 -75.4714 102° East 176 203 2,000 -198 Descending Boston Center
Tue 10:39:40 PM 43.1847 -75.4217 130° Southeast 170 196 2,000 -149 Level Boston Center
Tue 10:40:41 PM 43.1775 -75.3814 104° East 117 135 1,700 -492 Descending Boston Center
Tue 10:41:42 PM 43.2067 -75.3772 North 112 129 1,000 -689 Descending Boston Center
Tue 10:43:00 PM 43.2333 -75.4000 340° North  Level FlightAware
Tue 10:50:00 PM 43.2338 -75.4070 340° North  Level Estimated
Tue 10:51:00 PM 43.2333 -75.4000 340° North  Level FlightAware
Tue 10:52:00 PM 43.2338 -75.4070 340° North  Level Estimated
Tue 10:53:00 PM 43.2333 -75.4000 340° North  Level FlightAware
Tue 10:54:00 PM 43.2338 -75.4070 340° North  Level Estimated
Tue 10:55:00 PM 43.2333 -75.4000 340° North  Level FlightAware

Login

Don't have an account? Register now (free) for customized features, flight alerts, and more!